Time;durP1;ratioP1;P1;durP2;ratioP2;P2;SDS_P1;SDS_P2;PMS_P1;PMS_P2;Temp;Humidity;BMP_temperature;BMP_pressure;BME280_temperature;BME280_humidity;BME280_pressure;Samples;Min_cycle;Max_cycle;Signal;HPM_P1;HPM_P2
2023/07/19 00:04:52;;;;;;;9.60;6.82;;;;;;;21.15;72.76;97713.66;10258092;28;20089;-49
2023/07/19 00:09:51;;;;;;;9.93;7.00;;;;;;;21.28;72.57;97737.75;10255785;28;20049;-50
2023/07/19 00:14:50;;;;;;;10.90;8.13;;;;;;;21.27;73.60;97746.59;10254760;28;20520;-50
2023/07/19 00:19:49;;;;;;;11.95;8.05;;;;;;;21.22;74.83;97730.97;10255505;28;20484;-52
2023/07/19 00:24:47;;;;;;;10.52;7.80;;;;;;;21.11;74.69;97725.25;10259167;28;20148;-52
2023/07/19 00:29:46;;;;;;;10.55;7.60;;;;;;;21.16;75.19;97743.53;10260517;28;20122;-53
2023/07/19 00:34:45;;;;;;;14.52;8.88;;;;;;;21.12;76.11;97738.41;10257654;28;20041;-51
2023/07/19 00:39:46;;;;;;;11.05;8.45;;;;;;;21.12;76.19;97735.75;10260546;28;20503;-49
2023/07/19 00:44:48;;;;;;;11.57;8.43;;;;;;;21.13;76.62;97733.97;10257681;28;20057;-52
2023/07/19 00:49:48;;;;;;;13.48;8.52;;;;;;;21.13;76.93;97733.97;10250025;28;20419;-50
2023/07/19 00:54:47;;;;;;;13.02;8.73;;;;;;;21.07;77.53;97726.31;10255946;28;20488;-53
2023/07/19 00:59:46;;;;;;;12.60;8.82;;;;;;;21.09;77.65;97722.69;10256444;28;20513;-52
2023/07/19 01:04:49;;;;;;;10.90;8.30;;;;;;;21.06;77.78;97728.09;10257936;28;20034;-51
2023/07/19 01:09:49;;;;;;;14.43;8.85;;;;;;;21.03;77.82;97711.53;10256651;28;20066;-52
2023/07/19 01:14:48;;;;;;;11.73;8.80;;;;;;;21.02;77.91;97723.88;10260068;28;20057;-51
2023/07/19 01:19:48;;;;;;;11.00;8.23;;;;;;;20.99;77.71;97713.47;10255065;28;20030;-51
2023/07/19 01:24:46;;;;;;;9.65;7.88;;;;;;;20.99;77.94;97716.09;10262775;28;20495;-50
2023/07/19 01:29:46;;;;;;;12.50;8.90;;;;;;;21.01;77.96;97711.63;10253949;28;20514;-51
2023/07/19 01:34:47;;;;;;;13.18;8.13;;;;;;;20.97;78.73;97709.19;10254749;28;20101;-53
2023/07/19 01:39:46;;;;;;;13.75;8.75;;;;;;;20.91;78.69;97715.56;10256072;28;20556;-50
2023/07/19 01:44:44;;;;;;;14.82;8.65;;;;;;;20.70;79.78;97712.06;10230466;28;20073;-53
2023/07/19 01:49:43;;;;;;;12.82;8.80;;;;;;;20.54;80.23;97714.53;10252524;28;20029;-52
2023/07/19 01:54:42;;;;;;;12.63;8.45;;;;;;;20.42;80.91;97721.16;10252846;28;20029;-52
2023/07/19 01:59:42;;;;;;;14.10;8.55;;;;;;;20.33;80.99;97704.81;10252493;28;20025;-51
2023/07/19 02:04:41;;;;;;;13.50;9.75;;;;;;;20.29;81.15;97720.75;10252547;28;20062;-53
2023/07/19 02:09:40;;;;;;;15.98;9.20;;;;;;;20.20;81.61;97715.84;10251047;28;20105;-53
2023/07/19 02:14:39;;;;;;;11.75;8.90;;;;;;;20.06;82.07;97707.66;10253411;28;20486;-53
2023/07/19 02:19:38;;;;;;;14.13;9.73;;;;;;;19.99;83.04;97700.91;10251974;28;20452;-49
2023/07/19 02:24:37;;;;;;;14.20;9.52;;;;;;;19.84;84.01;97711.13;10261435;28;20443;-48
2023/07/19 02:29:36;;;;;;;14.90;10.20;;;;;;;19.82;83.86;97701.59;10259750;28;20078;-51
2023/07/19 02:34:35;;;;;;;14.27;9.55;;;;;;;19.84;83.52;97703.25;10260981;28;20026;-49
2023/07/19 02:39:34;;;;;;;16.00;8.70;;;;;;;19.82;83.30;97698.97;10259331;28;20070;-51
2023/07/19 02:44:33;;;;;;;16.02;8.48;;;;;;;19.81;82.85;97692.84;10259496;28;20066;-52
2023/07/19 02:49:32;;;;;;;11.75;8.35;;;;;;;19.66;82.38;97661.84;10260866;28;20023;-50
2023/07/19 02:54:31;;;;;;;12.07;9.20;;;;;;;19.79;82.49;97686.78;10265560;28;20112;-52
2023/07/19 02:59:30;;;;;;;13.02;8.98;;;;;;;19.71;82.48;97686.19;10260873;28;20072;-54
2023/07/19 03:04:30;;;;;;;12.90;9.10;;;;;;;19.63;83.32;97694.41;10260778;28;20027;-54
2023/07/19 03:09:30;;;;;;;19.45;10.85;;;;;;;19.63;83.57;97698.81;10261126;28;20463;-53
2023/07/19 03:14:29;;;;;;;16.50;10.00;;;;;;;19.62;83.86;97702.34;10260444;28;20121;-52
2023/07/19 03:19:28;;;;;;;14.27;10.27;;;;;;;19.61;83.94;97696.22;10261605;28;20133;-55
2023/07/19 03:24:27;;;;;;;15.05;9.73;;;;;;;19.62;83.78;97697.94;10261650;28;20033;-53
2023/07/19 03:29:26;;;;;;;14.95;9.45;;;;;;;19.64;83.93;97690.84;10258135;28;20436;-52
2023/07/19 03:34:25;;;;;;;14.18;9.38;;;;;;;19.72;83.86;97692.31;10258459;28;20021;-51
2023/07/19 03:39:24;;;;;;;13.48;9.90;;;;;;;19.72;83.87;97692.31;10261132;28;20109;-52
2023/07/19 03:44:23;;;;;;;12.73;8.80;;;;;;;19.66;83.87;97681.09;10262247;28;20114;-51
2023/07/19 03:49:22;;;;;;;14.90;10.30;;;;;;;19.70;83.99;97689.75;10258785;28;20042;-50
2023/07/19 03:54:21;;;;;;;13.13;9.73;;;;;;;19.77;83.94;97685.97;10259929;28;20704;-49
2023/07/19 03:59:20;;;;;;;20.58;11.20;;;;;;;19.75;83.97;97672.00;10258196;28;20025;-50
2023/07/19 04:04:19;;;;;;;20.50;10.82;;;;;;;19.79;84.34;97678.00;10261688;28;20500;-51
2023/07/19 04:09:18;;;;;;;28.15;11.43;;;;;;;19.72;84.86;97660.72;10260280;28;20114;-51
2023/07/19 04:14:16;;;;;;;23.90;10.55;;;;;;;19.92;84.35;97668.69;10258974;28;20040;-53
2023/07/19 04:19:15;;;;;;;20.90;11.18;;;;;;;20.08;84.14;97661.03;10258868;28;20542;-51
2023/07/19 04:24:14;;;;;;;17.58;9.98;;;;;;;20.25;83.79;97657.69;10258427;28;20468;-50
2023/07/19 04:29:13;;;;;;;19.33;9.68;;;;;;;20.43;83.17;97664.03;10260439;28;20527;-51
2023/07/19 04:34:12;;;;;;;23.15;10.98;;;;;;;20.66;81.95;97671.81;10256739;28;20506;-52
2023/07/19 04:39:11;;;;;;;24.05;11.43;;;;;;;20.73;81.36;97660.97;10256934;28;20065;-54
2023/07/19 04:44:10;;;;;;;49.15;13.82;;;;;;;20.88;81.05;97666.44;10256236;28;20126;-51
2023/07/19 04:49:09;;;;;;;51.47;14.35;;;;;;;21.04;81.06;97671.06;10254198;28;20451;-51
2023/07/19 04:54:10;;;;;;;70.35;16.20;;;;;;;21.03;81.04;97667.56;10283152;28;20058;-54
2023/07/19 04:59:09;;;;;;;19.90;10.63;;;;;;;21.11;80.96;97668.06;10281190;28;20085;-51
2023/07/19 05:04:08;;;;;;;15.10;9.73;;;;;;;21.23;80.57;97642.09;10283603;28;20064;-52
2023/07/19 05:09:09;;;;;;;17.48;10.52;;;;;;;21.62;79.79;97649.94;10282203;28;20044;-50
2023/07/19 05:14:08;;;;;;;24.35;11.57;;;;;;;21.60;78.79;97633.31;10282868;28;20122;-52
2023/07/19 05:19:08;;;;;;;62.78;14.68;;;;;;;21.75;79.00;97639.63;10283572;28;20084;-52
2023/07/19 05:24:06;;;;;;;33.97;11.23;;;;;;;21.77;79.08;97645.69;10284497;28;20061;-52
2023/07/19 05:29:06;;;;;;;16.50;10.95;;;;;;;21.70;78.66;97587.03;10286835;28;20053;-52
2023/07/19 05:34:05;;;;;;;16.08;10.25;;;;;;;22.02;78.59;97642.75;10284848;28;20072;-50
2023/07/19 05:39:04;;;;;;;158.40;25.42;;;;;;;22.12;77.93;97630.78;10286481;28;20032;-52
2023/07/19 05:44:03;;;;;;;25.67;11.50;;;;;;;22.24;76.48;97639.91;10283550;28;20060;-50
2023/07/19 05:49:03;;;;;;;18.30;11.05;;;;;;;22.36;75.70;97623.41;10289813;28;20053;-51
2023/07/19 05:54:03;;;;;;;14.50;9.50;;;;;;;22.59;73.79;97630.16;10285499;28;20472;-51
2023/07/19 05:59:04;;;;;;;12.05;8.80;;;;;;;22.65;73.51;97583.16;10294324;28;20054;-51
2023/07/19 06:04:03;;;;;;;14.70;9.15;;;;;;;23.13;71.95;97611.50;10291996;28;20069;-52
2023/07/19 06:09:05;;;;;;;28.65;10.38;;;;;;;23.41;70.65;97612.63;10293477;28;20069;-51
2023/07/19 06:14:04;;;;;;;25.38;10.88;;;;;;;23.61;69.49;97603.63;10287000;28;20117;-50
2023/07/19 06:19:03;;;;;;;11.10;9.82;;;;;;;23.81;68.24;97594.53;10295571;28;20055;-51
2023/07/19 06:24:02;;;;;;;13.30;9.85;;;;;;;23.90;67.68;97583.41;10288633;28;20028;-51
2023/07/19 06:29:01;;;;;;;12.73;9.68;;;;;;;24.18;67.57;97597.75;10290572;28;20113;-52
2023/07/19 06:34:00;;;;;;;14.82;9.95;;;;;;;24.47;65.87;97583.63;10285086;28;20128;-53
2023/07/19 06:38:59;;;;;;;11.57;8.63;;;;;;;24.72;66.16;97573.31;10289575;28;20046;-53
2023/07/19 06:43:58;;;;;;;13.25;9.25;;;;;;;24.97;63.64;97567.38;10289263;28;21606;-51
2023/07/19 06:48:57;;;;;;;11.10;8.23;;;;;;;25.03;62.01;97569.63;10287520;28;20116;-52
2023/07/19 06:53:56;;;;;;;11.95;8.00;;;;;;;25.16;61.25;97570.56;10289265;28;20044;-52
2023/07/19 06:58:55;;;;;;;12.45;8.20;;;;;;;25.46;60.49;97566.91;10293127;28;20407;-51
2023/07/19 07:03:54;;;;;;;10.20;7.45;;;;;;;25.77;59.10;97571.13;10285663;28;20113;-50
2023/07/19 07:08:53;;;;;;;9.45;7.80;;;;;;;25.97;57.53;97564.47;10286667;28;20141;-54
2023/07/19 07:13:52;;;;;;;9.65;7.07;;;;;;;26.13;55.74;97566.94;10282614;28;20145;-50
2023/07/19 07:18:51;;;;;;;11.77;7.90;;;;;;;26.36;56.25;97560.94;10288517;28;20026;-51
2023/07/19 07:23:50;;;;;;;13.43;7.68;;;;;;;26.61;56.47;97558.44;10288143;28;20116;-52
2023/07/19 07:28:49;;;;;;;17.45;8.05;;;;;;;26.75;53.85;97540.53;10289094;28;20034;-52
2023/07/19 07:33:48;;;;;;;17.85;8.70;;;;;;;27.02;53.27;97538.72;10286637;28;20050;-53
2023/07/19 07:38:48;;;;;;;13.20;7.13;;;;;;;27.20;52.06;97526.75;10289303;28;20147;-53
2023/07/19 07:43:47;;;;;;;15.45;7.45;;;;;;;27.56;52.61;97525.88;10285892;28;20072;-51
2023/07/19 07:48:45;;;;;;;10.90;7.68;;;;;;;27.75;51.59;97493.41;10286327;28;20041;-52
2023/07/19 07:53:45;;;;;;;10.55;7.50;;;;;;;28.18;49.64;97508.81;10287001;28;20399;-52
2023/07/19 07:58:44;;;;;;;13.15;7.65;;;;;;;28.42;49.58;97499.91;10286571;28;20076;-52
2023/07/19 08:03:43;;;;;;;11.52;7.75;;;;;;;28.67;48.10;97505.03;10301292;28;20048;-51
2023/07/19 08:08:41;;;;;;;14.27;9.75;;;;;;;28.87;48.59;97495.44;10285807;28;20060;-53
2023/07/19 08:13:40;;;;;;;10.02;8.13;;;;;;;29.03;48.23;97489.72;10282754;28;20037;-51
2023/07/19 08:18:39;;;;;;;39.03;13.43;;;;;;;29.28;46.61;97485.94;10284979;28;20078;-50
2023/07/19 08:23:38;;;;;;;9.43;5.97;;;;;;;29.48;44.61;97488.78;10285689;28;20500;-52
2023/07/19 08:28:37;;;;;;;10.18;5.95;;;;;;;29.61;43.35;97488.66;10286956;28;20117;-52
2023/07/19 08:33:36;;;;;;;10.40;6.35;;;;;;;29.91;41.81;97482.59;10287580;28;20058;-52
2023/07/19 08:38:35;;;;;;;12.38;7.78;;;;;;;30.23;42.65;97474.47;10287294;28;20034;-51
2023/07/19 08:43:37;;;;;;;10.43;6.50;;;;;;;30.34;42.43;97444.97;10287483;28;20502;-52
2023/07/19 08:48:37;;;;;;;16.02;7.90;;;;;;;30.81;40.96;97462.41;10288412;28;20058;-52
2023/07/19 08:53:36;;;;;;;13.82;7.53;;;;;;;31.00;40.70;97448.22;10282950;28;20080;-51
2023/07/19 08:58:37;;;;;;;150.55;26.00;;;;;;;31.02;39.68;97411.44;10286089;28;20046;-52
2023/07/19 09:03:36;;;;;;;10.45;6.78;;;;;;;31.49;38.38;97444.63;10283208;28;20136;-53
2023/07/19 09:08:37;;;;;;;9.10;5.95;;;;;;;31.44;36.54;97412.03;10284450;28;20482;-52
2023/07/19 09:13:37;;;;;;;10.18;5.78;;;;;;;31.81;35.12;97440.84;10281127;28;20475;-52
2023/07/19 09:18:37;;;;;;;8.30;5.78;;;;;;;32.00;36.39;97435.44;10279266;28;20187;-52
2023/07/19 09:23:37;;;;;;;8.23;5.80;;;;;;;32.12;35.25;97433.47;10278132;28;20129;-52
2023/07/19 09:28:36;;;;;;;9.95;6.18;;;;;;;32.21;35.16;97434.47;10284506;28;20062;-52
2023/07/19 09:33:34;;;;;;;12.80;6.55;;;;;;;32.27;34.01;97425.84;10279985;28;20054;-53
2023/07/19 09:38:33;;;;;;;7.70;5.97;;;;;;;32.48;34.62;97419.38;10281836;28;20478;-52
2023/07/19 09:43:34;;;;;;;9.23;5.60;;;;;;;32.60;34.60;97421.78;10284618;28;20581;-51
2023/07/19 09:48:34;;;;;;;8.40;5.65;;;;;;;32.58;33.74;97415.69;10286381;28;20058;-52
2023/07/19 09:53:37;;;;;;;7.22;6.35;;;;;;;32.64;33.76;97409.72;10275881;28;20803;-50
2023/07/19 09:58:36;;;;;;;8.52;6.18;;;;;;;32.63;33.73;97404.50;10276789;28;20516;-51
2023/07/19 10:03:36;;;;;;;9.38;6.47;;;;;;;32.68;33.30;97394.16;10279729;28;20148;-51
2023/07/19 10:08:35;;;;;;;9.48;6.90;;;;;;;32.88;34.68;97391.34;10280613;28;20754;-51
2023/07/19 10:13:56;;;;;;;7.78;6.00;;;;;;;33.12;33.88;97388.97;10284508;28;20044;-51
2023/07/19 10:19:09;;;;;;;7.32;5.97;;;;;;;33.44;34.23;97377.69;10285974;28;20073;-54
2023/07/19 10:24:08;;;;;;;10.18;6.80;;;;;;;33.62;33.20;97390.28;10285646;28;20084;-52
2023/07/19 10:29:07;;;;;;;7.60;6.38;;;;;;;33.38;32.13;97372.06;10282266;28;20141;-52
2023/07/19 10:34:06;;;;;;;11.70;7.25;;;;;;;33.82;34.27;97374.81;10281240;28;20133;-54
2023/07/19 10:39:05;;;;;;;9.43;6.50;;;;;;;34.03;32.24;97372.59;10282962;28;20053;-53
2023/07/19 10:44:04;;;;;;;10.15;6.93;;;;;;;34.02;29.96;97372.75;10286443;28;20033;-53
2023/07/19 10:49:06;;;;;;;9.68;6.53;;;;;;;33.99;30.34;97344.28;10290356;28;20117;-51
2023/07/19 10:54:06;;;;;;;10.70;6.93;;;;;;;34.27;29.79;97357.59;10289061;28;20058;-53
2023/07/19 10:59:05;;;;;;;10.70;6.30;;;;;;;33.64;29.22;97319.16;10287161;28;20133;-53
2023/07/19 11:04:05;;;;;;;10.35;7.82;;;;;;;34.18;29.91;97343.25;10283084;28;20077;-53
2023/07/19 11:09:06;;;;;;;9.77;6.43;;;;;;;34.44;27.87;97318.94;10285536;28;20515;-51
2023/07/19 11:14:05;;;;;;;7.78;6.20;;;;;;;34.80;28.34;97344.84;10283662;28;20148;-53
2023/07/19 11:19:05;;;;;;;8.00;6.43;;;;;;;35.02;28.03;97340.72;10285303;28;20504;-53
2023/07/19 11:24:05;;;;;;;13.00;6.57;;;;;;;34.88;28.53;97324.16;10285516;28;20077;-52
2023/07/19 11:29:06;;;;;;;27.20;8.80;;;;;;;34.83;28.03;97326.50;10283529;28;20073;-54
2023/07/19 11:34:10;;;;;;;9.55;6.43;;;;;;;34.78;26.11;97310.00;10284318;28;20080;-52
2023/07/19 11:39:23;;;;;;;8.73;6.35;;;;;;;35.26;26.14;97324.56;10281923;28;20197;-53
2023/07/19 11:44:22;;;;;;;11.00;6.93;;;;;;;35.25;26.19;97322.06;10281908;28;20069;-52
2023/07/19 11:49:21;;;;;;;11.43;6.00;;;;;;;35.18;26.33;97329.97;10284920;28;20047;-53
2023/07/19 11:54:20;;;;;;;15.00;7.25;;;;;;;35.34;26.90;97324.59;10281430;28;20523;-52
2023/07/19 11:59:19;;;;;;;9.35;6.70;;;;;;;35.59;27.05;97321.88;10283505;28;20488;-51
2023/07/19 12:04:18;;;;;;;8.07;6.32;;;;;;;35.63;27.76;97312.44;10283722;28;20589;-52
2023/07/19 12:09:19;;;;;;;7.85;6.30;;;;;;;35.47;26.70;97315.13;10290027;28;20540;-60
2023/07/19 12:14:18;;;;;;;9.68;6.70;;;;;;;35.42;26.60;97315.63;10282367;28;20077;-52
2023/07/19 12:19:17;;;;;;;7.70;6.55;;;;;;;35.59;26.42;97305.69;10284900;28;20050;-52
2023/07/19 12:24:16;;;;;;;10.02;6.90;;;;;;;35.71;25.91;97301.66;10283776;28;20111;-51
2023/07/19 12:29:15;;;;;;;8.95;6.45;;;;;;;35.65;26.39;97298.78;10283590;28;20484;-52
2023/07/19 12:34:14;;;;;;;7.20;6.10;;;;;;;35.76;25.87;97296.56;10282937;28;20037;-52
2023/07/19 12:39:13;;;;;;;8.30;6.93;;;;;;;35.74;26.02;97292.38;10282647;28;20148;-51
2023/07/19 12:44:12;;;;;;;9.43;7.20;;;;;;;35.85;26.32;97283.03;10277826;28;20207;-51
2023/07/19 12:49:11;;;;;;;8.10;7.03;;;;;;;35.84;25.51;97275.97;10282324;28;20519;-51
2023/07/19 12:54:11;;;;;;;8.20;6.20;;;;;;;36.00;25.28;97286.72;10284116;28;20067;-51
2023/07/19 12:59:10;;;;;;;9.77;6.82;;;;;;;36.04;24.43;97281.81;10283382;28;20121;-54
2023/07/19 13:04:09;;;;;;;8.05;5.93;;;;;;;36.54;26.65;97278.78;10286959;28;20041;-51
2023/07/19 13:09:08;;;;;;;7.38;6.30;;;;;;;36.73;24.85;97271.22;10283456;28;20496;-52
2023/07/19 13:14:08;;;;;;;10.48;6.00;;;;;;;36.24;30.33;97256.09;10284301;28;20148;-53
2023/07/19 13:19:08;;;;;;;9.27;6.78;;;;;;;36.12;29.94;97261.03;10281684;28;20464;-51
2023/07/19 13:24:08;;;;;;;8.20;6.45;;;;;;;35.99;29.92;97252.63;10280977;28;20530;-53
2023/07/19 13:29:07;;;;;;;8.95;6.38;;;;;;;35.74;31.97;97260.81;10281660;28;20174;-54
2023/07/19 13:34:06;;;;;;;8.05;5.72;;;;;;;35.68;31.12;97258.78;10283408;28;20120;-53
2023/07/19 13:39:05;;;;;;;6.43;5.82;;;;;;;35.53;31.18;97242.44;10281498;28;20129;-52
2023/07/19 13:44:04;;;;;;;9.65;6.35;;;;;;;35.46;31.26;97240.59;10284746;28;20145;-53
2023/07/19 13:49:04;;;;;;;8.57;6.25;;;;;;;35.44;31.06;97237.22;10283165;28;20037;-53
2023/07/19 13:54:03;;;;;;;6.88;5.88;;;;;;;35.37;31.32;97241.63;10278624;28;20125;-53
2023/07/19 13:59:02;;;;;;;7.03;6.15;;;;;;;35.21;31.27;97224.44;10281768;28;20026;-52
2023/07/19 14:04:01;;;;;;;9.40;7.28;;;;;;;35.17;30.80;97206.91;10282771;28;20140;-52
2023/07/19 14:09:00;;;;;;;8.07;6.47;;;;;;;35.25;30.70;97206.91;10276721;28;20112;-51
2023/07/19 14:13:59;;;;;;;11.32;6.35;;;;;;;35.21;31.02;97208.25;10281947;28;20514;-52
2023/07/19 14:18:58;;;;;;;9.77;6.70;;;;;;;35.27;31.30;97210.28;10285449;28;20144;-52
2023/07/19 14:23:57;;;;;;;8.68;6.18;;;;;;;35.25;30.75;97201.50;10290488;28;20468;-53
2023/07/19 14:28:57;;;;;;;8.13;6.35;;;;;;;35.32;30.20;97188.19;10286945;28;20471;-51
2023/07/19 14:33:56;;;;;;;9.07;6.07;;;;;;;35.37;30.74;97190.38;10288062;28;20077;-51
2023/07/19 14:38:55;;;;;;;9.50;6.07;;;;;;;35.63;30.72;97169.41;10290575;28;20061;-52
2023/07/19 14:43:54;;;;;;;8.32;6.30;;;;;;;35.82;30.02;97167.31;10287160;28;20025;-53
2023/07/19 14:48:53;;;;;;;8.10;6.47;;;;;;;35.86;29.69;97165.94;10288672;28;20153;-53
2023/07/19 14:53:52;;;;;;;8.05;6.35;;;;;;;35.92;29.94;97154.41;10288603;28;20415;-51
2023/07/19 14:58:51;;;;;;;8.65;6.43;;;;;;;35.91;30.13;97150.06;10282485;28;20034;-53
2023/07/19 15:03:51;;;;;;;8.65;7.15;;;;;;;35.72;30.57;97159.41;10285157;28;20036;-53
2023/07/19 15:08:50;;;;;;;7.05;6.30;;;;;;;35.72;30.66;97148.63;10283072;28;20134;-52
2023/07/19 15:13:49;;;;;;;7.72;6.30;;;;;;;35.41;30.79;97116.13;10287536;28;20120;-53
2023/07/19 15:18:48;;;;;;;48.80;22.67;;;;;;;35.13;30.23;97143.53;10286230;28;20142;-53
2023/07/19 15:23:47;;;;;;;8.68;7.35;;;;;;;35.30;31.20;97136.25;10288646;28;20026;-53
2023/07/19 15:28:46;;;;;;;9.05;6.45;;;;;;;35.29;30.33;97159.69;10282506;28;20112;-52
2023/07/19 15:33:45;;;;;;;8.52;6.45;;;;;;;35.07;30.35;97136.94;10284758;28;20128;-52
2023/07/19 15:38:44;;;;;;;8.98;6.43;;;;;;;35.06;30.68;97142.50;10285242;28;20149;-53
2023/07/19 15:43:44;;;;;;;9.48;6.00;;;;;;;35.09;30.75;97136.78;10282602;28;20044;-52
2023/07/19 15:48:43;;;;;;;7.50;6.38;;;;;;;35.07;31.64;97144.19;10287754;28;20064;-52
2023/07/19 15:53:42;;;;;;;8.35;6.93;;;;;;;34.92;31.91;97131.41;10285467;28;20022;-52
2023/07/19 15:58:42;;;;;;;17.55;10.63;;;;;;;34.84;31.78;97136.78;10282187;28;20018;-54
2023/07/19 16:03:41;;;;;;;29.15;23.08;;;;;;;34.70;32.35;97130.22;10282210;28;20121;-52
2023/07/19 16:08:41;;;;;;;9.25;6.22;;;;;;;34.60;32.81;97126.84;10283427;28;20053;-52
2023/07/19 16:13:40;;;;;;;8.88;6.50;;;;;;;34.55;32.25;97117.59;10280178;28;20061;-52
2023/07/19 16:18:39;;;;;;;8.23;6.65;;;;;;;34.56;32.24;97120.09;10278477;28;20575;-52
2023/07/19 16:23:40;;;;;;;8.15;6.05;;;;;;;34.50;32.42;97118.09;10280710;28;20559;-50
2023/07/19 16:28:39;;;;;;;7.57;5.82;;;;;;;34.56;32.22;97119.25;10283327;28;20092;-52
2023/07/19 16:33:39;;;;;;;9.15;6.72;;;;;;;34.48;32.86;97120.09;10282481;28;20038;-51
2023/07/19 16:38:37;;;;;;;9.65;7.07;;;;;;;34.47;33.45;97116.56;10281127;28;20129;-53
2023/07/19 16:43:36;;;;;;;8.68;6.30;;;;;;;34.43;33.26;97114.38;10283234;28;20052;-52
2023/07/19 16:48:35;;;;;;;9.40;7.53;;;;;;;34.36;33.34;97122.28;10280556;28;20095;-52
2023/07/19 16:53:34;;;;;;;15.48;8.63;;;;;;;34.31;34.65;97116.56;10280948;28;20025;-52
2023/07/19 16:58:33;;;;;;;10.80;7.50;;;;;;;33.76;37.12;97022.88;10278690;28;20052;-52
2023/07/19 17:03:32;;;;;;;10.38;7.07;;;;;;;34.24;37.62;97115.53;10279780;28;20129;-50
2023/07/19 17:08:31;;;;;;;12.57;7.85;;;;;;;34.06;38.75;97126.41;10280046;28;20050;-52
2023/07/19 17:13:36;;;;;;;9.65;7.47;;;;;;;33.75;39.30;97121.63;10278346;28;20029;-52
2023/07/19 17:18:35;;;;;;;12.68;8.27;;;;;;;33.52;40.33;97120.50;10281577;28;20661;-50
2023/07/19 17:23:34;;;;;;;13.68;7.72;;;;;;;33.31;41.53;97128.97;10278790;28;20117;-52
2023/07/19 17:28:33;;;;;;;12.88;7.30;;;;;;;33.06;40.81;97123.38;10280165;28;20038;-53
2023/07/19 17:33:32;;;;;;;8.23;7.43;;;;;;;32.75;41.08;97128.38;10278932;28;20046;-51
2023/07/19 17:38:31;;;;;;;9.40;7.70;;;;;;;32.35;42.00;97133.22;10276957;28;20041;-51
2023/07/19 17:43:30;;;;;;;11.52;8.15;;;;;;;31.95;43.07;97131.78;10279853;28;20351;-53
2023/07/19 17:48:29;;;;;;;9.15;7.97;;;;;;;31.50;44.68;97131.69;10277980;28;20032;-54
2023/07/19 17:53:28;;;;;;;9.95;7.70;;;;;;;31.00;45.37;97124.84;10279439;28;20482;-53
2023/07/19 17:58:27;;;;;;;17.63;8.77;;;;;;;30.66;46.77;97135.19;10283418;28;20026;-53
2023/07/19 18:03:26;;;;;;;10.30;7.90;;;;;;;30.28;47.51;97129.66;10280947;28;20026;-52
2023/07/19 18:08:25;;;;;;;12.00;8.52;;;;;;;30.04;48.51;97137.22;10283755;28;20483;-52
2023/07/19 18:13:24;;;;;;;13.15;9.32;;;;;;;29.75;48.90;97132.63;10279604;28;20077;-52
2023/07/19 18:18:23;;;;;;;11.80;9.27;;;;;;;29.44;50.12;97124.66;10281457;28;20034;-52
2023/07/19 18:23:21;;;;;;;11.60;9.35;;;;;;;29.16;50.24;97117.34;10300105;28;20040;-53
2023/07/19 18:28:20;;;;;;;12.40;8.45;;;;;;;28.89;51.22;97124.06;10280706;28;20022;-51
2023/07/19 18:33:19;;;;;;;15.13;9.75;;;;;;;28.65;51.67;97130.50;10278727;28;20444;-53
2023/07/19 18:38:18;;;;;;;12.05;8.70;;;;;;;28.35;54.04;97119.72;10278869;28;20040;-50
2023/07/19 18:43:19;;;;;;;11.88;9.43;;;;;;;28.07;54.99;97118.47;10277936;28;20029;-52
2023/07/19 18:48:18;;;;;;;11.48;9.73;;;;;;;27.89;55.68;97118.16;10279342;28;20114;-51
2023/07/19 18:53:17;;;;;;;13.75;9.15;;;;;;;27.70;56.52;97124.97;10278289;28;20141;-51
2023/07/19 18:58:17;;;;;;;14.05;9.68;;;;;;;27.63;56.91;97123.78;10280057;28;20040;-51
2023/07/19 19:03:16;;;;;;;11.50;9.65;;;;;;;27.33;56.69;97092.41;10266989;28;20144;-50
2023/07/19 19:08:20;;;;;;;13.93;9.60;;;;;;;27.27;56.84;97107.06;10286434;28;20121;-49
2023/07/19 19:13:19;;;;;;;12.52;9.45;;;;;;;27.27;56.70;97124.88;10285362;28;20128;-52
2023/07/19 19:18:18;;;;;;;11.20;9.73;;;;;;;27.16;56.64;97131.88;10285910;28;20034;-52
2023/07/19 19:23:17;;;;;;;12.90;9.95;;;;;;;26.72;59.37;97104.22;10284515;28;20029;-50
2023/07/19 19:28:17;;;;;;;14.95;10.45;;;;;;;26.81;59.88;97136.41;10284288;28;20024;-52
2023/07/19 19:33:16;;;;;;;17.58;11.98;;;;;;;26.83;60.00;97124.69;10284931;28;20133;-52
2023/07/19 19:38:15;;;;;;;14.88;10.55;;;;;;;26.67;60.51;97114.34;10283664;28;20137;-53
2023/07/19 19:43:14;;;;;;;14.65;11.23;;;;;;;26.65;61.11;97116.31;10284355;28;20558;-53
2023/07/19 19:48:14;;;;;;;15.98;11.27;;;;;;;26.64;60.29;97106.59;10284219;28;20074;-50
2023/07/19 19:53:13;;;;;;;16.48;11.02;;;;;;;26.51;60.04;97108.50;10282945;28;20080;-52
2023/07/19 19:58:12;;;;;;;16.15;11.02;;;;;;;26.33;60.70;97092.97;10284819;28;20116;-51
2023/07/19 20:03:11;;;;;;;15.00;11.18;;;;;;;26.26;60.95;97088.25;10282615;28;20061;-52
2023/07/19 20:08:10;;;;;;;15.45;10.63;;;;;;;26.15;60.90;97089.84;10283163;28;20137;-52
2023/07/19 20:13:09;;;;;;;12.48;9.50;;;;;;;26.05;60.72;97102.16;10280722;28;20069;-50
2023/07/19 20:18:08;;;;;;;15.35;10.05;;;;;;;25.93;60.66;97090.59;10283471;28;20037;-49
2023/07/19 20:23:07;;;;;;;16.75;11.60;;;;;;;25.70;62.86;97081.66;10281897;28;20125;-53
2023/07/19 20:28:06;;;;;;;18.13;12.55;;;;;;;25.64;64.32;97082.09;10284028;28;20121;-51
2023/07/19 20:33:05;;;;;;;15.00;11.32;;;;;;;25.60;64.77;97072.69;10281421;28;20085;-52
2023/07/19 20:38:08;;;;;;;12.32;10.85;;;;;;;25.37;66.30;97078.78;10283160;28;20037;-52
2023/07/19 20:43:07;;;;;;;13.18;10.30;;;;;;;25.23;66.66;97093.88;10282051;28;20490;-51
2023/07/19 20:48:06;;;;;;;15.32;11.02;;;;;;;25.03;68.05;97097.91;10279766;28;20065;-51
2023/07/19 20:53:05;;;;;;;14.10;10.88;;;;;;;24.57;69.67;97106.41;10281618;28;20028;-52
2023/07/19 20:58:04;;;;;;;15.55;11.48;;;;;;;24.57;70.23;97114.34;10280847;28;20033;-52
2023/07/19 21:03:03;;;;;;;19.45;11.50;;;;;;;24.59;71.47;97124.84;10279974;28;20391;-52
2023/07/19 21:08:02;;;;;;;14.65;11.35;;;;;;;24.60;71.29;97130.06;10281532;28;20026;-52
2023/07/19 21:13:01;;;;;;;16.30;11.38;;;;;;;24.56;71.02;97130.38;10280622;28;20121;-50
2023/07/19 21:18:00;;;;;;;15.43;11.50;;;;;;;24.54;71.26;97137.56;10280567;28;20372;-51
2023/07/19 21:22:59;;;;;;;15.63;11.40;;;;;;;24.48;71.86;97142.34;10281091;28;20021;-51
2023/07/19 21:27:58;;;;;;;16.58;11.70;;;;;;;24.35;71.53;97136.16;10279321;28;20072;-51
2023/07/19 21:32:58;;;;;;;16.23;11.48;;;;;;;24.42;71.77;97156.00;10280794;28;21178;-52
2023/07/19 21:37:57;;;;;;;27.20;12.43;;;;;;;24.40;72.23;97168.53;10279008;28;20161;-50
2023/07/19 21:42:56;;;;;;;17.27;11.80;;;;;;;24.14;75.74;97193.22;10279167;28;20065;-51
2023/07/19 21:47:55;;;;;;;16.92;11.55;;;;;;;23.72;78.15;97200.31;10280494;28;20041;-50
2023/07/19 21:52:54;;;;;;;13.70;10.85;;;;;;;23.55;78.07;97188.97;10273450;28;20053;-52
2023/07/19 21:57:53;;;;;;;16.65;11.77;;;;;;;23.48;78.45;97206.19;10278558;28;20041;-51
2023/07/19 22:02:52;;;;;;;15.88;10.95;;;;;;;22.92;82.60;97379.78;10278862;28;20618;-53
2023/07/19 22:07:51;;;;;;;12.32;9.80;;;;;;;22.52;81.57;97379.34;10273461;28;20117;-53
2023/07/19 22:12:50;;;;;;;14.07;9.18;;;;;;;22.77;78.05;97405.34;10280515;28;20835;-52
2023/07/19 22:17:51;;;;;;;20.83;8.07;;;;;;;23.41;68.79;97422.81;10275987;28;20026;-52
2023/07/19 22:22:50;;;;;;;33.97;7.80;;;;;;;23.80;62.36;97441.81;10279834;28;20543;-52
2023/07/19 22:27:49;;;;;;;26.38;8.20;;;;;;;23.04;73.60;97503.47;10274345;28;20514;-53
2023/07/19 22:32:48;;;;;;;25.45;10.55;;;;;;;20.21;100.00;97543.69;10276504;28;20125;-57
2023/07/19 22:37:47;;;;;;;20.30;10.98;;;;;;;19.40;100.00;97533.88;10280494;28;20145;-53
2023/07/19 22:42:46;;;;;;;24.88;12.50;;;;;;;19.51;100.00;97547.47;10286541;28;20033;-52
2023/07/19 22:47:47;;;;;;;31.98;15.98;;;;;;;19.55;100.00;97533.22;10286807;28;20022;-48
2023/07/19 22:52:50;;;;;;;48.17;15.30;;;;;;;19.79;100.00;97536.69;10285350;28;20128;-51
2023/07/19 22:57:51;;;;;;;22.88;14.50;;;;;;;19.83;100.00;97511.91;10287113;28;20132;-51